KMIE

Delaware County Regional Airport

Muncie, Indiana, USA
METAR KMIE 220953Z AUTO 22005KT 6SM BR BKN026 21/18 A3000 RMK AO2 SLP149 T02060183
Observed Flight Rules
May-22 @ 09:53 UTC (9 minutes ago) Marginal Visual Flight Rules
Wind Visibility Clouds Conditions
220° at 5 knots 6 miles
  • Broken at 2,600' AGL
  • Mist
Temperatures Readings
Current 21°C / 70°F
Dewpoint 18°C / 64°F
Humidity 83%
Altimeter 30" Hg
Pressure 1014.9 hPa
Elevation 285
METAR KMIE 220953Z AUTO 22005KT 6SM BR BKN026 21/18 A3000 RMK AO2 SLP149 T02060183
Observed Flight Rules
May-22 @ 09:53 UTC
(9 minutes ago)
MVFR
Wind Visibility
220° at 5 knots 6 miles
Clouds
  • Broken at 2,600' AGL
Conditions
  • Mist
Temperature Dewpoint
21°C / 70°F 18°C / 64°F
Humidity Altimeter Pressure
83% 30" Hg 1014.9 hPa